sensor_id;sensor_type;location;lat;lon;timestamp;pressure;altitude;pressure_sealevel;temperature;humidity
9523;BME280;63165;43.016;25.784;2023-04-19T00:00:51;99611.81;;;12.75;100.00
9523;BME280;63165;43.016;25.784;2023-04-19T00:03:18;99615.16;;;12.80;100.00
9523;BME280;63165;43.016;25.784;2023-04-19T00:05:47;99615.16;;;12.80;100.00
9523;BME280;63165;43.016;25.784;2023-04-19T00:08:14;99607.31;;;12.79;100.00
9523;BME280;63165;43.016;25.784;2023-04-19T00:10:41;99614.34;;;12.78;100.00
9523;BME280;63165;43.016;25.784;2023-04-19T00:13:09;99609.16;;;12.77;100.00
9523;BME280;63165;43.016;25.784;2023-04-19T00:15:37;99607.41;;;12.77;100.00
9523;BME280;63165;43.016;25.784;2023-04-19T00:18:04;99611.69;;;12.80;100.00
9523;BME280;63165;43.016;25.784;2023-04-19T00:20:32;99612.56;;;12.79;100.00
9523;BME280;63165;43.016;25.784;2023-04-19T00:23:00;99608.34;;;12.75;100.00
9523;BME280;63165;43.016;25.784;2023-04-19T00:25:28;99596.19;;;12.72;100.00
9523;BME280;63165;43.016;25.784;2023-04-19T00:27:56;99593.53;;;12.74;100.00
9523;BME280;63165;43.016;25.784;2023-04-19T00:30:23;99597.94;;;12.72;100.00
9523;BME280;63165;43.016;25.784;2023-04-19T00:32:50;99600.50;;;12.73;100.00
9523;BME280;63165;43.016;25.784;2023-04-19T00:35:18;99604.81;;;12.76;100.00
9523;BME280;63165;43.016;25.784;2023-04-19T00:37:45;99598.50;;;12.81;100.00
9523;BME280;63165;43.016;25.784;2023-04-19T00:40:14;99593.41;;;12.77;100.00
9523;BME280;63165;43.016;25.784;2023-04-19T00:42:42;99602.03;;;12.80;100.00
9523;BME280;63165;43.016;25.784;2023-04-19T00:45:10;99595.97;;;12.78;100.00
9523;BME280;63165;43.016;25.784;2023-04-19T00:47:37;99592.53;;;12.76;100.00
9523;BME280;63165;43.016;25.784;2023-04-19T00:50:06;99600.38;;;12.78;100.00
9523;BME280;63165;43.016;25.784;2023-04-19T00:52:34;99598.56;;;12.80;100.00
9523;BME280;63165;43.016;25.784;2023-04-19T00:55:02;99598.56;;;12.80;100.00
9523;BME280;63165;43.016;25.784;2023-04-19T00:57:32;99609.00;;;12.81;100.00
9523;BME280;63165;43.016;25.784;2023-04-19T00:59:59;99600.25;;;12.81;100.00
9523;BME280;63165;43.016;25.784;2023-04-19T01:02:30;99607.94;;;12.87;100.00
9523;BME280;63165;43.016;25.784;2023-04-19T01:04:58;99596.56;;;12.87;100.00
9523;BME280;63165;43.016;25.784;2023-04-19T01:07:25;99601.81;;;12.87;100.00
9523;BME280;63165;43.016;25.784;2023-04-19T01:09:53;99600.22;;;12.82;100.00
9523;BME280;63165;43.016;25.784;2023-04-19T01:12:20;99597.50;;;12.86;100.00
9523;BME280;63165;43.016;25.784;2023-04-19T01:14:49;99597.44;;;12.87;100.00
9523;BME280;63165;43.016;25.784;2023-04-19T01:17:17;99599.94;;;12.90;100.00
9523;BME280;63165;43.016;25.784;2023-04-19T01:19:45;99599.06;;;12.91;100.00
9523;BME280;63165;43.016;25.784;2023-04-19T01:22:17;99594.78;;;12.89;100.00
9523;BME280;63165;43.016;25.784;2023-04-19T01:24:46;99589.63;;;12.86;100.00
9523;BME280;63165;43.016;25.784;2023-04-19T01:27:13;99586.06;;;12.87;100.00
9523;BME280;63165;43.016;25.784;2023-04-19T01:29:42;99590.63;;;12.81;100.00
9523;BME280;63165;43.016;25.784;2023-04-19T01:32:09;99590.72;;;12.78;100.00
9523;BME280;63165;43.016;25.784;2023-04-19T01:34:37;99595.22;;;12.75;100.00
9523;BME280;63165;43.016;25.784;2023-04-19T01:37:04;99580.53;;;12.69;100.00
9523;BME280;63165;43.016;25.784;2023-04-19T01:39:33;99592.94;;;12.64;100.00
9523;BME280;63165;43.016;25.784;2023-04-19T01:42:00;99583.41;;;12.61;100.00
9523;BME280;63165;43.016;25.784;2023-04-19T01:44:29;99583.41;;;12.61;100.00
9523;BME280;63165;43.016;25.784;2023-04-19T01:46:56;99583.56;;;12.57;100.00
9523;BME280;63165;43.016;25.784;2023-04-19T01:49:23;99586.25;;;12.55;100.00
9523;BME280;63165;43.016;25.784;2023-04-19T01:51:51;99587.13;;;12.54;100.00
9523;BME280;63165;43.016;25.784;2023-04-19T01:54:18;99583.66;;;12.54;100.00
9523;BME280;63165;43.016;25.784;2023-04-19T01:56:47;99579.31;;;12.53;100.00
9523;BME280;63165;43.016;25.784;2023-04-19T01:59:14;99578.50;;;12.51;100.00
9523;BME280;63165;43.016;25.784;2023-04-19T02:01:41;99576.94;;;12.45;100.00
9523;BME280;63165;43.016;25.784;2023-04-19T02:04:08;99576.16;;;12.41;100.00
9523;BME280;63165;43.016;25.784;2023-04-19T02:06:36;99579.72;;;12.40;100.00
9523;BME280;63165;43.016;25.784;2023-04-19T02:09:03;99578.91;;;12.38;100.00
9523;BME280;63165;43.016;25.784;2023-04-19T02:11:30;99578.94;;;12.37;100.00
9523;BME280;63165;43.016;25.784;2023-04-19T02:13:59;99581.56;;;12.37;100.00
9523;BME280;63165;43.016;25.784;2023-04-19T02:16:26;99584.19;;;12.37;100.00
9523;BME280;63165;43.016;25.784;2023-04-19T02:18:54;99579.16;;;12.31;100.00
9523;BME280;63165;43.016;25.784;2023-04-19T02:21:21;99580.91;;;12.30;100.00
9523;BME280;63165;43.016;25.784;2023-04-19T02:23:48;99573.03;;;12.30;100.00
9523;BME280;63165;43.016;25.784;2023-04-19T02:26:15;99575.59;;;12.32;100.00
9523;BME280;63165;43.016;25.784;2023-04-19T02:28:42;99583.34;;;12.36;100.00
9523;BME280;63165;43.016;25.784;2023-04-19T02:31:11;99580.75;;;12.35;100.00
9523;BME280;63165;43.016;25.784;2023-04-19T02:33:38;99572.84;;;12.36;100.00
9523;BME280;63165;43.016;25.784;2023-04-19T02:36:06;99576.47;;;12.32;100.00
9523;BME280;63165;43.016;25.784;2023-04-19T02:38:34;99578.19;;;12.33;100.00
9523;BME280;63165;43.016;25.784;2023-04-19T02:41:01;99581.78;;;12.31;100.00
9523;BME280;63165;43.016;25.784;2023-04-19T02:43:29;99572.13;;;12.31;100.00
9523;BME280;63165;43.016;25.784;2023-04-19T02:45:56;99582.66;;;12.30;100.00
9523;BME280;63165;43.016;25.784;2023-04-19T02:48:24;99571.44;;;12.24;100.00
9523;BME280;63165;43.016;25.784;2023-04-19T02:50:52;99580.94;;;12.29;100.00
9523;BME280;63165;43.016;25.784;2023-04-19T02:53:19;99571.31;;;12.29;100.00
9523;BME280;63165;43.016;25.784;2023-04-19T02:55:46;99573.06;;;12.29;100.00
9523;BME280;63165;43.016;25.784;2023-04-19T02:58:14;99573.03;;;12.30;100.00
9523;BME280;63165;43.016;25.784;2023-04-19T03:00:41;99580.03;;;12.30;100.00
9523;BME280;63165;43.016;25.784;2023-04-19T03:03:08;99574.59;;;12.36;100.00
9523;BME280;63165;43.016;25.784;2023-04-19T03:05:37;99573.91;;;12.31;100.00
9523;BME280;63165;43.016;25.784;2023-04-19T03:08:04;99586.94;;;12.32;100.00
9523;BME280;63165;43.016;25.784;2023-04-19T03:10:31;99574.00;;;12.28;100.00
9523;BME280;63165;43.016;25.784;2023-04-19T03:12:58;99582.75;;;12.27;100.00
9523;BME280;63165;43.016;25.784;2023-04-19T03:15:26;99568.03;;;12.22;100.00
9523;BME280;63165;43.016;25.784;2023-04-19T03:17:53;99588.72;;;12.32;100.00
9523;BME280;63165;43.016;25.784;2023-04-19T03:20:20;99577.38;;;12.31;100.00
9523;BME280;63165;43.016;25.784;2023-04-19T03:22:49;99573.03;;;12.30;100.00
9523;BME280;63165;43.016;25.784;2023-04-19T03:25:17;99582.59;;;12.33;100.00
9523;BME280;63165;43.016;25.784;2023-04-19T03:27:44;99573.06;;;12.29;100.00
9523;BME280;63165;43.016;25.784;2023-04-19T03:30:12;99582.63;;;12.31;100.00
9523;BME280;63165;43.016;25.784;2023-04-19T03:32:39;99579.06;;;12.32;100.00
9523;BME280;63165;43.016;25.784;2023-04-19T03:35:07;99577.34;;;12.33;100.00
9523;BME280;63165;43.016;25.784;2023-04-19T03:37:35;99574.72;;;12.33;100.00
9523;BME280;63165;43.016;25.784;2023-04-19T03:40:04;99577.34;;;12.33;100.00
9523;BME280;63165;43.016;25.784;2023-04-19T03:42:32;99575.66;;;12.30;100.00
9523;BME280;63165;43.016;25.784;2023-04-19T03:44:59;99579.03;;;12.34;100.00
9523;BME280;63165;43.016;25.784;2023-04-19T03:47:26;99582.50;;;12.34;100.00
9523;BME280;63165;43.016;25.784;2023-04-19T03:49:53;99583.44;;;12.33;100.00
9523;BME280;63165;43.016;25.784;2023-04-19T03:52:20;99577.41;;;12.30;100.00
9523;BME280;63165;43.016;25.784;2023-04-19T03:54:47;99579.16;;;12.31;100.00
9523;BME280;63165;43.016;25.784;2023-04-19T03:57:16;99578.28;;;12.30;100.00
9523;BME280;63165;43.016;25.784;2023-04-19T03:59:43;99581.69;;;12.32;100.00
9523;BME280;63165;43.016;25.784;2023-04-19T04:02:10;99591.31;;;12.33;100.00
9523;BME280;63165;43.016;25.784;2023-04-19T04:04:38;99584.28;;;12.34;100.00
9523;BME280;63165;43.016;25.784;2023-04-19T04:07:05;99586.09;;;12.32;100.00
9523;BME280;63165;43.016;25.784;2023-04-19T04:09:32;99582.59;;;12.33;100.00
9523;BME280;63165;43.016;25.784;2023-04-19T04:11:59;99582.72;;;12.28;100.00
9523;BME280;63165;43.016;25.784;2023-04-19T04:14:29;99582.63;;;12.31;100.00
9523;BME280;63165;43.016;25.784;2023-04-19T04:16:56;99584.41;;;12.31;100.00
9523;BME280;63165;43.016;25.784;2023-04-19T04:19:23;99580.72;;;12.36;100.00
9523;BME280;63165;43.016;25.784;2023-04-19T04:21:50;99590.38;;;12.34;100.00
9523;BME280;63165;43.016;25.784;2023-04-19T04:24:17;99592.88;;;12.39;100.00
9523;BME280;63165;43.016;25.784;2023-04-19T04:26:47;99596.34;;;12.39;100.00
9523;BME280;63165;43.016;25.784;2023-04-19T04:29:16;99593.72;;;12.39;100.00
9523;BME280;63165;43.016;25.784;2023-04-19T04:31:44;99588.47;;;12.39;100.00
9523;BME280;63165;43.016;25.784;2023-04-19T04:34:11;99584.28;;;12.34;100.00
9523;BME280;63165;43.016;25.784;2023-04-19T04:36:39;99592.97;;;12.36;100.00
9523;BME280;63165;43.016;25.784;2023-04-19T04:39:06;99592.84;;;12.40;100.00
9523;BME280;63165;43.016;25.784;2023-04-19T04:41:36;99587.63;;;12.39;100.00
9523;BME280;63165;43.016;25.784;2023-04-19T04:44:05;99591.09;;;12.39;100.00
9523;BME280;63165;43.016;25.784;2023-04-19T04:46:33;99592.78;;;12.42;100.00
9523;BME280;63165;43.016;25.784;2023-04-19T04:49:02;99589.44;;;12.37;100.00
9523;BME280;63165;43.016;25.784;2023-04-19T04:51:29;99603.28;;;12.42;100.00
9523;BME280;63165;43.016;25.784;2023-04-19T04:53:56;99604.19;;;12.41;100.00
9523;BME280;63165;43.016;25.784;2023-04-19T04:56:24;99602.31;;;12.45;100.00
9523;BME280;63165;43.016;25.784;2023-04-19T04:58:51;99615.34;;;12.48;100.00
9523;BME280;63165;43.016;25.784;2023-04-19T05:01:19;99585.97;;;12.36;100.00
9523;BME280;63165;43.016;25.784;2023-04-19T05:03:47;99603.97;;;12.47;100.00
9523;BME280;63165;43.016;25.784;2023-04-19T05:06:16;99602.28;;;12.46;100.00
9523;BME280;63165;43.016;25.784;2023-04-19T05:08:43;99605.78;;;12.45;100.00
9523;BME280;63165;43.016;25.784;2023-04-19T05:11:10;99605.94;;;12.40;100.00
9523;BME280;63165;43.016;25.784;2023-04-19T05:13:37;99603.56;;;12.33;100.00
9523;BME280;63165;43.016;25.784;2023-04-19T05:16:05;99602.84;;;12.28;100.00
9523;BME280;63165;43.016;25.784;2023-04-19T05:18:32;99613.94;;;12.36;100.00
9523;BME280;63165;43.016;25.784;2023-04-19T05:20:59;99615.69;;;12.37;100.00
9523;BME280;63165;43.016;25.784;2023-04-19T05:23:28;99612.91;;;12.41;100.00
9523;BME280;63165;43.016;25.784;2023-04-19T05:25:55;99619.91;;;12.41;100.00
9523;BME280;63165;43.016;25.784;2023-04-19T05:28:22;99623.31;;;12.45;100.00
9523;BME280;63165;43.016;25.784;2023-04-19T05:30:49;99619.06;;;12.40;100.00
9523;BME280;63165;43.016;25.784;2023-04-19T05:33:16;99610.50;;;12.34;100.00
9523;BME280;63165;43.016;25.784;2023-04-19T05:35:43;99631.22;;;12.43;100.00
9523;BME280;63165;43.016;25.784;2023-04-19T05:38:10;99637.44;;;12.40;100.00
9523;BME280;63165;43.016;25.784;2023-04-19T05:40:39;99628.56;;;12.45;100.00
9523;BME280;63165;43.016;25.784;2023-04-19T05:43:06;99631.25;;;12.41;100.00
9523;BME280;63165;43.016;25.784;2023-04-19T05:45:36;99630.44;;;12.39;100.00
9523;BME280;63165;43.016;25.784;2023-04-19T05:48:04;99622.75;;;12.35;100.00
9523;BME280;63165;43.016;25.784;2023-04-19T05:50:31;99619.31;;;12.33;100.00
9523;BME280;63165;43.016;25.784;2023-04-19T05:52:58;99628.00;;;12.35;100.00
9523;BME280;63165;43.016;25.784;2023-04-19T05:55:25;99636.63;;;12.38;100.00
9523;BME280;63165;43.016;25.784;2023-04-19T05:57:54;99629.66;;;12.37;100.00
9523;BME280;63165;43.016;25.784;2023-04-19T06:00:21;99639.19;;;12.40;100.00
9523;BME280;63165;43.016;25.784;2023-04-19T06:02:48;99644.34;;;12.43;100.00
9523;BME280;63165;43.016;25.784;2023-04-19T06:05:15;99651.28;;;12.46;100.00
9523;BME280;63165;43.016;25.784;2023-04-19T06:07:42;99645.91;;;12.49;100.00
9523;BME280;63165;43.016;25.784;2023-04-19T06:10:10;99649.38;;;12.49;100.00
9523;BME280;63165;43.016;25.784;2023-04-19T06:12:37;99654.59;;;12.51;100.00
9523;BME280;63165;43.016;25.784;2023-04-19T06:15:08;99650.28;;;12.50;100.00
9523;BME280;63165;43.016;25.784;2023-04-19T06:17:35;99651.88;;;12.54;100.00
9523;BME280;63165;43.016;25.784;2023-04-19T06:20:03;99652.72;;;12.54;100.00
9523;BME280;63165;43.016;25.784;2023-04-19T06:22:32;99653.81;;;12.47;100.00
9523;BME280;63165;43.016;25.784;2023-04-19T06:25:00;99654.59;;;12.51;100.00
9523;BME280;63165;43.016;25.784;2023-04-19T06:27:28;99657.34;;;12.48;100.00
9523;BME280;63165;43.016;25.784;2023-04-19T06:29:55;99665.28;;;12.45;100.00
9523;BME280;63165;43.016;25.784;2023-04-19T06:32:27;99657.59;;;12.38;100.00
9523;BME280;63165;43.016;25.784;2023-04-19T06:34:54;99662.03;;;12.36;100.00
9523;BME280;63165;43.016;25.784;2023-04-19T06:37:21;99682.19;;;12.34;100.00
9523;BME280;63165;43.016;25.784;2023-04-19T06:39:48;99673.50;;;12.32;100.00
9523;BME280;63165;43.016;25.784;2023-04-19T06:42:16;99661.44;;;12.27;100.00
9523;BME280;63165;43.016;25.784;2023-04-19T06:44:44;99658.03;;;12.23;100.00
9523;BME280;63165;43.016;25.784;2023-04-19T06:47:12;99672.66;;;12.32;100.00
9523;BME280;63165;43.016;25.784;2023-04-19T06:49:40;99673.59;;;12.31;100.00
9523;BME280;63165;43.016;25.784;2023-04-19T06:52:08;99672.69;;;12.30;100.00
9523;BME280;63165;43.016;25.784;2023-04-19T06:54:35;99681.53;;;12.28;100.00
9523;BME280;63165;43.016;25.784;2023-04-19T06:57:02;99672.31;;;12.14;100.00
9523;BME280;63165;43.016;25.784;2023-04-19T06:59:29;99678.91;;;12.28;100.00
9523;BME280;63165;43.016;25.784;2023-04-19T07:01:58;99686.84;;;12.24;100.00
9523;BME280;63165;43.016;25.784;2023-04-19T07:04:25;99677.41;;;12.19;100.00
9523;BME280;63165;43.016;25.784;2023-04-19T07:06:54;99689.47;;;12.24;100.00
9523;BME280;63165;43.016;25.784;2023-04-19T07:09:21;99692.84;;;12.30;100.00
9523;BME280;63165;43.016;25.784;2023-04-19T07:11:49;99697.13;;;12.32;100.00
9523;BME280;63165;43.016;25.784;2023-04-19T07:14:17;99699.72;;;12.34;100.00
9523;BME280;63165;43.016;25.784;2023-04-19T07:16:45;99694.28;;;12.40;100.00
9523;BME280;63165;43.016;25.784;2023-04-19T07:19:13;99691.56;;;12.43;100.00
9523;BME280;63165;43.016;25.784;2023-04-19T07:21:40;99687.28;;;12.40;100.00
9523;BME280;63165;43.016;25.784;2023-04-19T07:24:09;99693.28;;;12.44;100.00
9523;BME280;63165;43.016;25.784;2023-04-19T07:26:36;99688.13;;;12.41;100.00
9523;BME280;63165;43.016;25.784;2023-04-19T07:29:03;99692.47;;;12.42;100.00
9523;BME280;63165;43.016;25.784;2023-04-19T07:31:30;99691.75;;;12.37;100.00
9523;BME280;63165;43.016;25.784;2023-04-19T07:33:58;99709.38;;;12.32;100.00
9523;BME280;63165;43.016;25.784;2023-04-19T07:36:25;99697.09;;;12.34;100.00
9523;BME280;63165;43.016;25.784;2023-04-19T07:38:52;99700.66;;;12.31;100.00
9523;BME280;63165;43.016;25.784;2023-04-19T07:41:21;99710.19;;;12.34;100.00
9523;BME280;63165;43.016;25.784;2023-04-19T07:43:48;99704.91;;;12.35;100.00
9523;BME280;63165;43.016;25.784;2023-04-19T07:46:15;99705.75;;;12.36;100.00
9523;BME280;63165;43.016;25.784;2023-04-19T07:48:43;99703.94;;;12.38;100.00
9523;BME280;63165;43.016;25.784;2023-04-19T07:51:13;99712.84;;;12.32;100.00
9523;BME280;63165;43.016;25.784;2023-04-19T07:53:41;99697.13;;;12.32;100.00
9523;BME280;63165;43.016;25.784;2023-04-19T07:56:09;99701.44;;;12.35;100.00
9523;BME280;63165;43.016;25.784;2023-04-19T07:58:38;99693.81;;;12.27;100.00
9523;BME280;63165;43.016;25.784;2023-04-19T08:01:05;99707.47;;;12.38;100.00
9523;BME280;63165;43.016;25.784;2023-04-19T08:03:33;99702.13;;;12.40;100.00
9523;BME280;63165;43.016;25.784;2023-04-19T08:06:01;99702.13;;;12.40;100.00
9523;BME280;63165;43.016;25.784;2023-04-19T08:08:30;99695.72;;;12.50;100.00
9523;BME280;63165;43.016;25.784;2023-04-19T08:10:57;99701.66;;;12.57;100.00
9523;BME280;63165;43.016;25.784;2023-04-19T08:13:24;99697.16;;;12.60;100.00
9523;BME280;63165;43.016;25.784;2023-04-19T08:15:53;99698.00;;;12.62;100.00
9523;BME280;63165;43.016;25.784;2023-04-19T08:18:21;99692.59;;;12.67;100.00
9523;BME280;63165;43.016;25.784;2023-04-19T08:20:48;99695.22;;;12.67;100.00
9523;BME280;63165;43.016;25.784;2023-04-19T08:23:16;99694.06;;;12.76;100.00
9523;BME280;63165;43.016;25.784;2023-04-19T08:25:43;99692.22;;;12.79;100.00
9523;BME280;63165;43.016;25.784;2023-04-19T08:28:11;99693.03;;;12.81;100.00
9523;BME280;63165;43.016;25.784;2023-04-19T08:30:39;99691.16;;;12.85;100.00
9523;BME280;63165;43.016;25.784;2023-04-19T08:33:08;99686.72;;;12.87;100.00
9523;BME280;63165;43.016;25.784;2023-04-19T08:35:36;99688.38;;;12.90;100.00
9523;BME280;63165;43.016;25.784;2023-04-19T08:38:03;99698.75;;;12.94;100.00
9523;BME280;63165;43.016;25.784;2023-04-19T08:40:30;99675.41;;;12.85;100.00
9523;BME280;63165;43.016;25.784;2023-04-19T08:42:58;99685.63;;;12.94;100.00
9523;BME280;63165;43.016;25.784;2023-04-19T08:45:26;99681.84;;;13.01;100.00
9523;BME280;63165;43.016;25.784;2023-04-19T08:47:55;99688.59;;;13.10;100.00
9523;BME280;63165;43.016;25.784;2023-04-19T08:50:24;99685.75;;;13.16;100.00
9523;BME280;63165;43.016;25.784;2023-04-19T08:52:52;99669.19;;;13.14;100.00
9523;BME280;63165;43.016;25.784;2023-04-19T08:55:19;99690.69;;;13.26;100.00
9523;BME280;63165;43.016;25.784;2023-04-19T08:57:46;99680.94;;;13.29;100.00
9523;BME280;63165;43.016;25.784;2023-04-19T09:00:15;99663.66;;;13.22;100.00
9523;BME280;63165;43.016;25.784;2023-04-19T09:02:45;99681.75;;;13.33;100.00
9523;BME280;63165;43.016;25.784;2023-04-19T09:05:13;99681.66;;;13.36;100.00
9523;BME280;63165;43.016;25.784;2023-04-19T09:07:44;99679.06;;;13.34;100.00
9523;BME280;63165;43.016;25.784;2023-04-19T09:10:12;99678.84;;;13.40;100.00
9523;BME280;63165;43.016;25.784;2023-04-19T09:12:40;99683.28;;;13.38;100.00
9523;BME280;63165;43.016;25.784;2023-04-19T09:15:09;99678.22;;;13.34;100.00
9523;BME280;63165;43.016;25.784;2023-04-19T09:17:37;99682.50;;;13.36;100.00
9523;BME280;63165;43.016;25.784;2023-04-19T09:20:06;99685.03;;;13.39;100.00
9523;BME280;63165;43.016;25.784;2023-04-19T09:22:33;99686.72;;;13.40;100.00
9523;BME280;63165;43.016;25.784;2023-04-19T09:25:02;99676.47;;;13.33;100.00
9523;BME280;63165;43.016;25.784;2023-04-19T09:27:30;99688.41;;;13.43;100.00
9523;BME280;63165;43.016;25.784;2023-04-19T09:29:59;99682.28;;;13.43;100.00
9523;BME280;63165;43.016;25.784;2023-04-19T09:32:27;99674.66;;;13.35;100.00
9523;BME280;63165;43.016;25.784;2023-04-19T09:34:55;99664.91;;;13.38;100.00
9523;BME280;63165;43.016;25.784;2023-04-19T09:37:23;99684.44;;;13.56;100.00
9523;BME280;63165;43.016;25.784;2023-04-19T09:39:51;99678.53;;;13.50;100.00
9523;BME280;63165;43.016;25.784;2023-04-19T09:42:20;99693.75;;;13.65;100.00
9523;BME280;63165;43.016;25.784;2023-04-19T09:44:57;99690.31;;;13.63;100.00
9523;BME280;63165;43.016;25.784;2023-04-19T09:47:25;99686.53;;;13.72;100.00
9523;BME280;63165;43.016;25.784;2023-04-19T09:50:05;99688.94;;;13.78;100.00
9523;BME280;63165;43.016;25.784;2023-04-19T09:52:33;99689.53;;;13.86;100.00
9523;BME280;63165;43.016;25.784;2023-04-19T09:55:01;99684.09;;;13.91;100.00
9523;BME280;63165;43.016;25.784;2023-04-19T09:57:31;99691.09;;;13.92;99.49
9523;BME280;63165;43.016;25.784;2023-04-19T10:00:00;99685.91;;;13.89;98.43
9523;BME280;63165;43.016;25.784;2023-04-19T10:02:31;99697.28;;;13.89;98.05
9523;BME280;63165;43.016;25.784;2023-04-19T10:04:59;99687.41;;;13.96;98.00
9523;BME280;63165;43.016;25.784;2023-04-19T10:07:27;99680.22;;;14.01;97.65
9523;BME280;63165;43.016;25.784;2023-04-19T10:09:55;99680.91;;;14.06;97.96
9523;BME280;63165;43.016;25.784;2023-04-19T10:12:24;99682.38;;;14.13;96.99
9523;BME280;63165;43.016;25.784;2023-04-19T10:14:54;99689.19;;;14.19;96.87
9523;BME280;63165;43.016;25.784;2023-04-19T10:17:23;99679.47;;;14.21;97.28
9523;BME280;63165;43.016;25.784;2023-04-19T10:19:55;99678.47;;;14.25;97.56
9523;BME280;63165;43.016;25.784;2023-04-19T10:22:23;99675.69;;;14.28;98.03
9523;BME280;63165;43.016;25.784;2023-04-19T10:25:07;99684.22;;;14.35;97.65
9523;BME280;63165;43.016;25.784;2023-04-19T10:27:35;99680.25;;;14.47;97.47
9523;BME280;63165;43.016;25.784;2023-04-19T10:30:05;99683.53;;;14.53;96.80
9523;BME280;63165;43.016;25.784;2023-04-19T10:32:38;99677.31;;;14.54;96.83
9523;BME280;63165;43.016;25.784;2023-04-19T10:35:09;99669.91;;;14.66;96.86
9523;BME280;63165;43.016;25.784;2023-04-19T10:37:39;99674.44;;;14.84;97.97
9523;BME280;63165;43.016;25.784;2023-04-19T10:40:08;99671.53;;;15.12;98.85
9523;BME280;63165;43.016;25.784;2023-04-19T10:43:13;99668.56;;;15.20;96.30
9523;BME280;63165;43.016;25.784;2023-04-19T10:45:43;99666.66;;;15.24;94.43
9523;BME280;63165;43.016;25.784;2023-04-19T10:48:34;99667.38;;;15.27;92.17
9523;BME280;63165;43.016;25.784;2023-04-19T10:51:05;99667.44;;;15.26;92.00
9523;BME280;63165;43.016;25.784;2023-04-19T10:53:46;99669.28;;;15.24;91.76
9523;BME280;63165;43.016;25.784;2023-04-19T10:56:14;99665.81;;;15.23;91.70
9523;BME280;63165;43.016;25.784;2023-04-19T11:01:54;99666.47;;;15.28;92.33
9523;BME280;63165;43.016;25.784;2023-04-19T11:04:24;99662.97;;;15.28;92.14
9523;BME280;63165;43.016;25.784;2023-04-19T11:07:11;99659.63;;;15.24;90.84
9523;BME280;63165;43.016;25.784;2023-04-19T11:09:39;99663.06;;;15.26;91.29
9523;BME280;63165;43.016;25.784;2023-04-19T11:12:11;99643.88;;;15.23;91.40
9523;BME280;63165;43.016;25.784;2023-04-19T11:14:40;99650.28;;;15.38;91.29
9523;BME280;63165;43.016;25.784;2023-04-19T11:17:16;99661.47;;;15.43;90.40
9523;BME280;63165;43.016;25.784;2023-04-19T11:19:52;99661.34;;;15.46;89.43
9523;BME280;63165;43.016;25.784;2023-04-19T11:22:24;99656.00;;;15.47;88.34
9523;BME280;63165;43.016;25.784;2023-04-19T11:24:52;99657.78;;;15.47;87.25
9523;BME280;63165;43.016;25.784;2023-04-19T11:27:20;99655.53;;;15.58;87.71
9523;BME280;63165;43.016;25.784;2023-04-19T11:29:47;99654.94;;;15.72;87.95
9523;BME280;63165;43.016;25.784;2023-04-19T11:32:19;99653.00;;;15.96;88.63
9523;BME280;63165;43.016;25.784;2023-04-19T11:34:47;99637.19;;;16.15;88.71
9523;BME280;63165;43.016;25.784;2023-04-19T11:37:14;99642.19;;;16.40;87.63
9523;BME280;63165;43.016;25.784;2023-04-19T11:39:45;99634.00;;;16.64;85.84
9523;BME280;63165;43.016;25.784;2023-04-19T11:42:17;99625.88;;;16.68;84.02
9523;BME280;63165;43.016;25.784;2023-04-19T11:44:49;99632.34;;;16.80;83.04
9523;BME280;63165;43.016;25.784;2023-04-19T11:47:18;99635.53;;;16.87;81.34
9523;BME280;63165;43.016;25.784;2023-04-19T11:49:45;99619.94;;;17.00;80.30
9523;BME280;63165;43.016;25.784;2023-04-19T11:52:19;99622.19;;;17.07;79.27
9523;BME280;63165;43.016;25.784;2023-04-19T11:54:47;99621.38;;;17.24;78.89
9523;BME280;63165;43.016;25.784;2023-04-19T11:57:14;99629.34;;;17.40;77.11
9523;BME280;63165;43.016;25.784;2023-04-19T12:00:02;99615.41;;;17.54;73.12
9523;BME280;63165;43.016;25.784;2023-04-19T12:02:36;99619.13;;;17.68;74.17
9523;BME280;63165;43.016;25.784;2023-04-19T12:05:11;99609.91;;;17.92;73.50
9523;BME280;63165;43.016;25.784;2023-04-19T12:07:57;99606.06;;;18.14;71.49
9523;BME280;63165;43.016;25.784;2023-04-19T12:10:25;99603.44;;;18.30;71.84
9523;BME280;63165;43.016;25.784;2023-04-19T12:12:52;99597.13;;;18.48;70.10
9523;BME280;63165;43.016;25.784;2023-04-19T12:15:19;99596.16;;;18.65;68.47
9523;BME280;63165;43.016;25.784;2023-04-19T12:17:58;99578.09;;;18.72;66.78
9523;BME280;63165;43.016;25.784;2023-04-19T12:20:30;99580.28;;;18.79;67.23
9523;BME280;63165;43.016;25.784;2023-04-19T12:22:58;99575.34;;;18.89;66.26
9523;BME280;63165;43.016;25.784;2023-04-19T12:25:29;99575.91;;;18.94;66.67
9523;BME280;63165;43.016;25.784;2023-04-19T12:27:57;99577.06;;;18.90;67.56
9523;BME280;63165;43.016;25.784;2023-04-19T12:30:24;99566.72;;;18.86;68.38
9523;BME280;63165;43.016;25.784;2023-04-19T12:32:51;99571.16;;;18.85;68.05
9523;BME280;63165;43.016;25.784;2023-04-19T12:35:24;99559.09;;;18.79;67.27
9523;BME280;63165;43.016;25.784;2023-04-19T12:37:52;99554.84;;;18.77;67.79
9523;BME280;63165;43.016;25.784;2023-04-19T12:40:19;99551.88;;;18.67;66.11
9523;BME280;63165;43.016;25.784;2023-04-19T12:42:48;99546.59;;;18.51;65.50
9523;BME280;63165;43.016;25.784;2023-04-19T12:45:16;99555.50;;;18.50;64.72
9523;BME280;63165;43.016;25.784;2023-04-19T12:47:44;99548.84;;;18.43;64.31
9523;BME280;63165;43.016;25.784;2023-04-19T12:50:13;99549.97;;;18.39;64.27
9523;BME280;63165;43.016;25.784;2023-04-19T12:53:02;99544.41;;;18.28;64.52
9523;BME280;63165;43.016;25.784;2023-04-19T12:55:31;99537.25;;;18.14;65.52
9523;BME280;63165;43.016;25.784;2023-04-19T12:58:09;99535.53;;;18.13;66.18
9523;BME280;63165;43.016;25.784;2023-04-19T13:00:36;99546.56;;;18.05;67.68
9523;BME280;63165;43.016;25.784;2023-04-19T13:03:03;99535.63;;;17.95;66.87